sensor_id;sensor_type;location;lat;lon;timestamp;temperature;humidity
18153;DHT22;9202;51.578;7.734;2023-07-29T00:00:23;19.30;99.90
18153;DHT22;9202;51.578;7.734;2023-07-29T00:02:25;19.20;99.90
18153;DHT22;9202;51.578;7.734;2023-07-29T00:04:30;19.20;99.90
18153;DHT22;9202;51.578;7.734;2023-07-29T00:06:33;19.20;99.90
18153;DHT22;9202;51.578;7.734;2023-07-29T00:08:36;19.30;99.90
18153;DHT22;9202;51.578;7.734;2023-07-29T00:10:39;19.20;99.90
18153;DHT22;9202;51.578;7.734;2023-07-29T00:12:41;19.10;99.90
18153;DHT22;9202;51.578;7.734;2023-07-29T00:14:44;19.10;99.90
18153;DHT22;9202;51.578;7.734;2023-07-29T00:16:46;19.10;99.90
18153;DHT22;9202;51.578;7.734;2023-07-29T01:02:08;21.20;99.90
18153;DHT22;9202;51.578;7.734;2023-07-29T01:04:11;18.90;99.90
18153;DHT22;9202;51.578;7.734;2023-07-29T01:06:14;18.90;99.90
18153;DHT22;9202;51.578;7.734;2023-07-29T01:08:20;18.80;99.90
18153;DHT22;9202;51.578;7.734;2023-07-29T01:10:26;18.80;99.90
18153;DHT22;9202;51.578;7.734;2023-07-29T01:14:59;18.80;99.90
18153;DHT22;9202;51.578;7.734;2023-07-29T01:17:03;18.80;99.90
18153;DHT22;9202;51.578;7.734;2023-07-29T01:19:08;18.80;99.90
18153;DHT22;9202;51.578;7.734;2023-07-29T01:21:12;18.90;99.90
18153;DHT22;9202;51.578;7.734;2023-07-29T01:23:16;18.80;99.90
18153;DHT22;9202;51.578;7.734;2023-07-29T01:25:19;18.90;99.90
18153;DHT22;9202;51.578;7.734;2023-07-29T01:27:21;18.90;99.90
18153;DHT22;9202;51.578;7.734;2023-07-29T01:29:25;18.90;99.90
18153;DHT22;9202;51.578;7.734;2023-07-29T01:31:30;18.90;99.90
18153;DHT22;9202;51.578;7.734;2023-07-29T01:33:33;18.90;99.90
18153;DHT22;9202;51.578;7.734;2023-07-29T01:35:39;18.90;99.90
18153;DHT22;9202;51.578;7.734;2023-07-29T01:37:42;18.90;99.90
18153;DHT22;9202;51.578;7.734;2023-07-29T01:39:46;18.90;99.90
18153;DHT22;9202;51.578;7.734;2023-07-29T01:41:50;18.80;99.90
18153;DHT22;9202;51.578;7.734;2023-07-29T01:43:53;18.80;99.90
18153;DHT22;9202;51.578;7.734;2023-07-29T01:45:55;18.80;99.90
18153;DHT22;9202;51.578;7.734;2023-07-29T01:47:58;18.80;99.90
18153;DHT22;9202;51.578;7.734;2023-07-29T01:50:01;18.80;99.90
18153;DHT22;9202;51.578;7.734;2023-07-29T01:52:05;18.80;99.90
18153;DHT22;9202;51.578;7.734;2023-07-29T01:54:08;18.80;99.90
18153;DHT22;9202;51.578;7.734;2023-07-29T01:56:11;18.80;99.90
18153;DHT22;9202;51.578;7.734;2023-07-29T01:58:16;18.80;99.90
18153;DHT22;9202;51.578;7.734;2023-07-29T02:00:21;18.80;99.90
18153;DHT22;9202;51.578;7.734;2023-07-29T02:02:23;18.80;99.90
18153;DHT22;9202;51.578;7.734;2023-07-29T02:04:26;18.80;99.90
18153;DHT22;9202;51.578;7.734;2023-07-29T02:06:29;18.80;99.90
18153;DHT22;9202;51.578;7.734;2023-07-29T02:08:32;18.70;99.90
18153;DHT22;9202;51.578;7.734;2023-07-29T02:10:34;18.70;99.90
18153;DHT22;9202;51.578;7.734;2023-07-29T02:12:37;18.70;99.90
18153;DHT22;9202;51.578;7.734;2023-07-29T02:14:40;18.70;99.90
18153;DHT22;9202;51.578;7.734;2023-07-29T02:16:43;18.70;99.90
18153;DHT22;9202;51.578;7.734;2023-07-29T02:18:45;18.70;99.90
18153;DHT22;9202;51.578;7.734;2023-07-29T02:20:48;18.70;99.90
18153;DHT22;9202;51.578;7.734;2023-07-29T02:22:51;18.70;99.90
18153;DHT22;9202;51.578;7.734;2023-07-29T02:24:54;18.60;99.90
18153;DHT22;9202;51.578;7.734;2023-07-29T02:26:56;18.70;99.90
18153;DHT22;9202;51.578;7.734;2023-07-29T02:28:59;18.60;99.90
18153;DHT22;9202;51.578;7.734;2023-07-29T02:31:13;18.60;99.90
18153;DHT22;9202;51.578;7.734;2023-07-29T02:33:16;18.70;99.90
18153;DHT22;9202;51.578;7.734;2023-07-29T02:35:19;18.70;99.90
18153;DHT22;9202;51.578;7.734;2023-07-29T02:37:22;18.60;99.90
18153;DHT22;9202;51.578;7.734;2023-07-29T02:39:25;18.60;99.90
18153;DHT22;9202;51.578;7.734;2023-07-29T02:41:28;18.60;99.90
18153;DHT22;9202;51.578;7.734;2023-07-29T02:43:30;18.70;99.90
18153;DHT22;9202;51.578;7.734;2023-07-29T02:45:33;18.60;99.90
18153;DHT22;9202;51.578;7.734;2023-07-29T02:47:36;18.50;99.90
18153;DHT22;9202;51.578;7.734;2023-07-29T02:49:39;18.50;99.90
18153;DHT22;9202;51.578;7.734;2023-07-29T02:51:41;18.50;99.90
18153;DHT22;9202;51.578;7.734;2023-07-29T02:53:44;18.40;99.90
18153;DHT22;9202;51.578;7.734;2023-07-29T02:55:47;18.40;99.90
18153;DHT22;9202;51.578;7.734;2023-07-29T02:57:49;18.30;99.90
18153;DHT22;9202;51.578;7.734;2023-07-29T02:59:52;18.40;99.90
18153;DHT22;9202;51.578;7.734;2023-07-29T03:01:55;18.40;99.90
18153;DHT22;9202;51.578;7.734;2023-07-29T03:03:57;18.50;99.90
18153;DHT22;9202;51.578;7.734;2023-07-29T03:06:01;18.30;99.90
18153;DHT22;9202;51.578;7.734;2023-07-29T03:08:04;18.30;99.90
18153;DHT22;9202;51.578;7.734;2023-07-29T03:10:08;18.30;99.90
18153;DHT22;9202;51.578;7.734;2023-07-29T03:12:12;18.40;99.90
18153;DHT22;9202;51.578;7.734;2023-07-29T03:14:15;18.40;99.90
18153;DHT22;9202;51.578;7.734;2023-07-29T03:16:18;18.40;99.90
18153;DHT22;9202;51.578;7.734;2023-07-29T03:18:23;18.40;99.90
18153;DHT22;9202;51.578;7.734;2023-07-29T03:20:25;18.40;99.90
18153;DHT22;9202;51.578;7.734;2023-07-29T03:22:28;18.40;99.90
18153;DHT22;9202;51.578;7.734;2023-07-29T03:24:30;18.50;99.90
18153;DHT22;9202;51.578;7.734;2023-07-29T03:26:33;18.50;99.90
18153;DHT22;9202;51.578;7.734;2023-07-29T03:28:36;18.40;99.90
18153;DHT22;9202;51.578;7.734;2023-07-29T03:30:39;18.50;99.90
18153;DHT22;9202;51.578;7.734;2023-07-29T03:32:43;18.50;99.90
18153;DHT22;9202;51.578;7.734;2023-07-29T03:34:47;18.50;99.90
18153;DHT22;9202;51.578;7.734;2023-07-29T03:36:49;18.60;99.90
18153;DHT22;9202;51.578;7.734;2023-07-29T03:38:53;18.70;99.90
18153;DHT22;9202;51.578;7.734;2023-07-29T03:40:56;18.70;99.90
18153;DHT22;9202;51.578;7.734;2023-07-29T03:42:59;18.60;99.90
18153;DHT22;9202;51.578;7.734;2023-07-29T03:45:03;18.60;99.90
18153;DHT22;9202;51.578;7.734;2023-07-29T03:47:06;18.60;99.90
18153;DHT22;9202;51.578;7.734;2023-07-29T03:49:08;18.60;99.90
18153;DHT22;9202;51.578;7.734;2023-07-29T03:51:11;18.60;99.90
18153;DHT22;9202;51.578;7.734;2023-07-29T03:53:14;18.60;99.90
18153;DHT22;9202;51.578;7.734;2023-07-29T03:55:17;18.70;99.90
18153;DHT22;9202;51.578;7.734;2023-07-29T03:57:19;18.60;99.90
18153;DHT22;9202;51.578;7.734;2023-07-29T03:59:22;18.60;99.90
18153;DHT22;9202;51.578;7.734;2023-07-29T04:01:25;18.70;99.90
18153;DHT22;9202;51.578;7.734;2023-07-29T04:03:28;18.60;99.90
18153;DHT22;9202;51.578;7.734;2023-07-29T04:05:31;18.60;99.90
18153;DHT22;9202;51.578;7.734;2023-07-29T04:07:34;18.70;99.90
18153;DHT22;9202;51.578;7.734;2023-07-29T04:09:37;18.70;99.90
18153;DHT22;9202;51.578;7.734;2023-07-29T04:11:40;18.70;99.90
18153;DHT22;9202;51.578;7.734;2023-07-29T04:13:42;18.80;99.90
18153;DHT22;9202;51.578;7.734;2023-07-29T04:15:45;18.70;99.90
18153;DHT22;9202;51.578;7.734;2023-07-29T04:17:48;18.70;99.90
18153;DHT22;9202;51.578;7.734;2023-07-29T04:19:50;18.70;99.90
18153;DHT22;9202;51.578;7.734;2023-07-29T04:21:53;18.80;99.90
18153;DHT22;9202;51.578;7.734;2023-07-29T04:23:56;18.80;99.90
18153;DHT22;9202;51.578;7.734;2023-07-29T04:38:49;18.80;99.90
18153;DHT22;9202;51.578;7.734;2023-07-29T04:40:52;18.80;99.90
18153;DHT22;9202;51.578;7.734;2023-07-29T06:08:28;19.30;99.90
18153;DHT22;9202;51.578;7.734;2023-07-29T06:10:31;19.40;99.90
18153;DHT22;9202;51.578;7.734;2023-07-29T06:12:34;19.40;99.90
18153;DHT22;9202;51.578;7.734;2023-07-29T06:14:37;19.40;99.90
18153;DHT22;9202;51.578;7.734;2023-07-29T06:16:39;19.40;99.90
18153;DHT22;9202;51.578;7.734;2023-07-29T06:18:42;19.40;99.90
18153;DHT22;9202;51.578;7.734;2023-07-29T06:20:45;19.40;99.90
18153;DHT22;9202;51.578;7.734;2023-07-29T06:22:47;19.40;99.90
18153;DHT22;9202;51.578;7.734;2023-07-29T06:24:50;19.30;99.90
18153;DHT22;9202;51.578;7.734;2023-07-29T06:26:53;19.40;99.90
18153;DHT22;9202;51.578;7.734;2023-07-29T06:28:55;19.30;99.90
18153;DHT22;9202;51.578;7.734;2023-07-29T06:30:58;19.40;99.90
18153;DHT22;9202;51.578;7.734;2023-07-29T06:33:00;19.30;99.90
18153;DHT22;9202;51.578;7.734;2023-07-29T06:35:05;19.30;99.90
18153;DHT22;9202;51.578;7.734;2023-07-29T06:37:08;19.30;99.90
18153;DHT22;9202;51.578;7.734;2023-07-29T06:39:11;19.30;99.90
18153;DHT22;9202;51.578;7.734;2023-07-29T06:41:13;19.30;99.90
18153;DHT22;9202;51.578;7.734;2023-07-29T06:43:18;19.30;99.90
18153;DHT22;9202;51.578;7.734;2023-07-29T06:45:20;19.30;99.90
18153;DHT22;9202;51.578;7.734;2023-07-29T06:47:23;19.20;99.90
18153;DHT22;9202;51.578;7.734;2023-07-29T06:49:25;19.20;99.90
18153;DHT22;9202;51.578;7.734;2023-07-29T06:51:28;19.20;99.90
18153;DHT22;9202;51.578;7.734;2023-07-29T06:53:32;19.20;99.90
18153;DHT22;9202;51.578;7.734;2023-07-29T06:55:36;19.20;99.90
18153;DHT22;9202;51.578;7.734;2023-07-29T06:57:39;19.20;99.90
18153;DHT22;9202;51.578;7.734;2023-07-29T06:59:41;19.20;99.90
18153;DHT22;9202;51.578;7.734;2023-07-29T07:01:44;19.20;99.90
18153;DHT22;9202;51.578;7.734;2023-07-29T07:03:46;19.10;99.90
18153;DHT22;9202;51.578;7.734;2023-07-29T07:05:49;19.10;99.90
18153;DHT22;9202;51.578;7.734;2023-07-29T07:07:52;19.10;99.90
18153;DHT22;9202;51.578;7.734;2023-07-29T07:09:54;19.10;99.90
18153;DHT22;9202;51.578;7.734;2023-07-29T07:11:57;19.10;99.90
18153;DHT22;9202;51.578;7.734;2023-07-29T07:14:00;19.00;99.90
18153;DHT22;9202;51.578;7.734;2023-07-29T07:16:02;19.00;99.90
18153;DHT22;9202;51.578;7.734;2023-07-29T07:18:05;18.90;99.90
18153;DHT22;9202;51.578;7.734;2023-07-29T07:20:08;19.00;99.90
18153;DHT22;9202;51.578;7.734;2023-07-29T07:22:10;19.00;99.90
18153;DHT22;9202;51.578;7.734;2023-07-29T07:24:15;19.00;99.90
18153;DHT22;9202;51.578;7.734;2023-07-29T07:26:18;18.90;99.90
18153;DHT22;9202;51.578;7.734;2023-07-29T07:28:20;18.90;99.90
18153;DHT22;9202;51.578;7.734;2023-07-29T07:30:23;18.90;99.90
18153;DHT22;9202;51.578;7.734;2023-07-29T07:32:26;18.80;99.90
18153;DHT22;9202;51.578;7.734;2023-07-29T07:34:28;18.90;99.90
18153;DHT22;9202;51.578;7.734;2023-07-29T07:36:31;18.90;99.90
18153;DHT22;9202;51.578;7.734;2023-07-29T07:38:34;18.90;99.90
18153;DHT22;9202;51.578;7.734;2023-07-29T07:40:37;18.80;99.90
18153;DHT22;9202;51.578;7.734;2023-07-29T07:42:39;18.90;99.90
18153;DHT22;9202;51.578;7.734;2023-07-29T07:44:42;18.90;99.90
18153;DHT22;9202;51.578;7.734;2023-07-29T07:46:45;18.90;99.90
18153;DHT22;9202;51.578;7.734;2023-07-29T07:48:47;18.90;99.90
18153;DHT22;9202;51.578;7.734;2023-07-29T07:50:50;18.90;99.90
18153;DHT22;9202;51.578;7.734;2023-07-29T07:52:53;18.90;99.90
18153;DHT22;9202;51.578;7.734;2023-07-29T07:54:55;18.90;99.90
18153;DHT22;9202;51.578;7.734;2023-07-29T07:56:58;18.90;99.90
18153;DHT22;9202;51.578;7.734;2023-07-29T07:59:00;19.00;99.90
18153;DHT22;9202;51.578;7.734;2023-07-29T08:01:06;19.10;99.90
18153;DHT22;9202;51.578;7.734;2023-07-29T08:03:09;19.00;99.90
18153;DHT22;9202;51.578;7.734;2023-07-29T08:07:30;19.10;99.90
18153;DHT22;9202;51.578;7.734;2023-07-29T08:09:33;19.20;99.90
18153;DHT22;9202;51.578;7.734;2023-07-29T08:11:35;19.30;99.90
18153;DHT22;9202;51.578;7.734;2023-07-29T08:13:38;19.50;99.90
18153;DHT22;9202;51.578;7.734;2023-07-29T08:15:41;19.70;99.90
18153;DHT22;9202;51.578;7.734;2023-07-29T08:17:43;19.90;99.90
18153;DHT22;9202;51.578;7.734;2023-07-29T08:19:47;19.90;99.90
18153;DHT22;9202;51.578;7.734;2023-07-29T08:21:50;20.00;99.90
18153;DHT22;9202;51.578;7.734;2023-07-29T08:23:53;20.10;99.90
18153;DHT22;9202;51.578;7.734;2023-07-29T08:25:55;20.20;99.90
18153;DHT22;9202;51.578;7.734;2023-07-29T08:28:00;20.30;99.90
18153;DHT22;9202;51.578;7.734;2023-07-29T08:30:03;20.40;99.90
18153;DHT22;9202;51.578;7.734;2023-07-29T08:32:06;20.60;99.90
18153;DHT22;9202;51.578;7.734;2023-07-29T08:34:09;20.70;99.90
18153;DHT22;9202;51.578;7.734;2023-07-29T08:36:12;20.80;99.90
18153;DHT22;9202;51.578;7.734;2023-07-29T08:38:15;20.90;99.90
18153;DHT22;9202;51.578;7.734;2023-07-29T08:40:18;21.00;99.90
18153;DHT22;9202;51.578;7.734;2023-07-29T08:42:22;21.00;99.90
18153;DHT22;9202;51.578;7.734;2023-07-29T08:44:29;20.90;99.90
18153;DHT22;9202;51.578;7.734;2023-07-29T08:46:31;20.70;99.90
18153;DHT22;9202;51.578;7.734;2023-07-29T08:48:40;20.50;99.90
18153;DHT22;9202;51.578;7.734;2023-07-29T08:50:40;20.40;99.90
18153;DHT22;9202;51.578;7.734;2023-07-29T08:52:43;20.30;99.90
18153;DHT22;9202;51.578;7.734;2023-07-29T08:54:46;20.70;99.90
18153;DHT22;9202;51.578;7.734;2023-07-29T08:56:49;20.90;99.90
18153;DHT22;9202;51.578;7.734;2023-07-29T08:58:52;21.10;99.90
18153;DHT22;9202;51.578;7.734;2023-07-29T09:00:55;21.00;99.90
18153;DHT22;9202;51.578;7.734;2023-07-29T09:02:57;21.20;99.90
18153;DHT22;9202;51.578;7.734;2023-07-29T09:05:02;21.50;99.90
18153;DHT22;9202;51.578;7.734;2023-07-29T09:07:06;21.90;99.90
18153;DHT22;9202;51.578;7.734;2023-07-29T09:09:09;22.10;99.90
18153;DHT22;9202;51.578;7.734;2023-07-29T09:11:13;22.20;99.90
18153;DHT22;9202;51.578;7.734;2023-07-29T09:13:16;21.80;99.90
18153;DHT22;9202;51.578;7.734;2023-07-29T09:15:27;21.70;99.90
18153;DHT22;9202;51.578;7.734;2023-07-29T09:17:31;21.70;99.90
18153;DHT22;9202;51.578;7.734;2023-07-29T09:19:34;22.00;99.90
18153;DHT22;9202;51.578;7.734;2023-07-29T09:21:38;22.00;99.90
18153;DHT22;9202;51.578;7.734;2023-07-29T09:26:04;21.80;99.90
18153;DHT22;9202;51.578;7.734;2023-07-29T09:28:11;21.90;99.90
18153;DHT22;9202;51.578;7.734;2023-07-29T09:30:16;21.90;99.90
18153;DHT22;9202;51.578;7.734;2023-07-29T09:32:20;22.10;99.90
18153;DHT22;9202;51.578;7.734;2023-07-29T09:34:23;22.40;99.90
18153;DHT22;9202;51.578;7.734;2023-07-29T09:36:26;22.50;99.90
18153;DHT22;9202;51.578;7.734;2023-07-29T09:38:29;22.70;99.90
18153;DHT22;9202;51.578;7.734;2023-07-29T09:40:34;22.80;99.90
18153;DHT22;9202;51.578;7.734;2023-07-29T09:42:38;23.00;99.90
18153;DHT22;9202;51.578;7.734;2023-07-29T09:44:41;22.90;99.90
18153;DHT22;9202;51.578;7.734;2023-07-29T09:46:45;22.90;99.90
18153;DHT22;9202;51.578;7.734;2023-07-29T09:48:48;23.00;99.90
18153;DHT22;9202;51.578;7.734;2023-07-29T09:50:52;22.80;99.90
18153;DHT22;9202;51.578;7.734;2023-07-29T09:52:55;22.60;99.90
18153;DHT22;9202;51.578;7.734;2023-07-29T09:55:00;22.70;99.90
18153;DHT22;9202;51.578;7.734;2023-07-29T09:57:03;22.70;99.90
18153;DHT22;9202;51.578;7.734;2023-07-29T09:59:06;22.80;99.90
18153;DHT22;9202;51.578;7.734;2023-07-29T10:01:08;22.90;99.90
18153;DHT22;9202;51.578;7.734;2023-07-29T10:03:11;22.90;99.90
18153;DHT22;9202;51.578;7.734;2023-07-29T10:05:15;22.90;99.90
18153;DHT22;9202;51.578;7.734;2023-07-29T10:07:18;23.00;99.90
18153;DHT22;9202;51.578;7.734;2023-07-29T10:09:21;23.20;99.90
18153;DHT22;9202;51.578;7.734;2023-07-29T10:11:25;23.00;99.90
18153;DHT22;9202;51.578;7.734;2023-07-29T10:13:28;23.00;99.90
18153;DHT22;9202;51.578;7.734;2023-07-29T10:15:31;22.90;99.90
18153;DHT22;9202;51.578;7.734;2023-07-29T10:17:35;23.00;99.90
18153;DHT22;9202;51.578;7.734;2023-07-29T10:19:38;23.00;99.90
18153;DHT22;9202;51.578;7.734;2023-07-29T10:21:41;23.20;99.90
18153;DHT22;9202;51.578;7.734;2023-07-29T10:23:46;23.60;99.90
18153;DHT22;9202;51.578;7.734;2023-07-29T10:25:55;23.60;99.90
18153;DHT22;9202;51.578;7.734;2023-07-29T10:27:56;23.50;99.90
18153;DHT22;9202;51.578;7.734;2023-07-29T10:30:07;23.20;99.90
18153;DHT22;9202;51.578;7.734;2023-07-29T10:32:14;23.10;99.90
18153;DHT22;9202;51.578;7.734;2023-07-29T10:34:22;22.90;99.90
18153;DHT22;9202;51.578;7.734;2023-07-29T10:36:27;22.70;99.90
18153;DHT22;9202;51.578;7.734;2023-07-29T10:38:31;22.60;99.90
18153;DHT22;9202;51.578;7.734;2023-07-29T10:40:44;22.50;99.90
18153;DHT22;9202;51.578;7.734;2023-07-29T10:43:00;22.50;99.90
18153;DHT22;9202;51.578;7.734;2023-07-29T10:45:18;22.60;99.90
18153;DHT22;9202;51.578;7.734;2023-07-29T10:47:22;22.60;99.90
18153;DHT22;9202;51.578;7.734;2023-07-29T10:49:25;22.90;99.90
18153;DHT22;9202;51.578;7.734;2023-07-29T10:51:30;23.20;99.90
18153;DHT22;9202;51.578;7.734;2023-07-29T10:53:39;23.10;99.90
18153;DHT22;9202;51.578;7.734;2023-07-29T10:55:43;23.20;99.90
18153;DHT22;9202;51.578;7.734;2023-07-29T10:57:46;23.20;99.90
18153;DHT22;9202;51.578;7.734;2023-07-29T10:59:53;23.20;99.90
18153;DHT22;9202;51.578;7.734;2023-07-29T11:01:57;22.90;99.90
18153;DHT22;9202;51.578;7.734;2023-07-29T11:06:21;22.70;99.90
18153;DHT22;9202;51.578;7.734;2023-07-29T11:08:26;22.90;99.90
18153;DHT22;9202;51.578;7.734;2023-07-29T11:10:28;23.00;99.90
18153;DHT22;9202;51.578;7.734;2023-07-29T11:12:43;22.90;99.90
18153;DHT22;9202;51.578;7.734;2023-07-29T11:14:48;23.00;99.90
18153;DHT22;9202;51.578;7.734;2023-07-29T11:16:50;23.30;99.90
18153;DHT22;9202;51.578;7.734;2023-07-29T11:21:56;23.60;99.90
18153;DHT22;9202;51.578;7.734;2023-07-29T11:24:00;23.70;99.90
18153;DHT22;9202;51.578;7.734;2023-07-29T11:26:04;23.90;99.90
18153;DHT22;9202;51.578;7.734;2023-07-29T11:28:06;24.00;99.90
18153;DHT22;9202;51.578;7.734;2023-07-29T11:30:10;24.20;99.90
18153;DHT22;9202;51.578;7.734;2023-07-29T11:32:12;24.20;99.90
18153;DHT22;9202;51.578;7.734;2023-07-29T11:34:15;24.20;99.90
18153;DHT22;9202;51.578;7.734;2023-07-29T11:36:20;24.00;99.90
18153;DHT22;9202;51.578;7.734;2023-07-29T11:38:22;23.70;99.90
18153;DHT22;9202;51.578;7.734;2023-07-29T11:40:25;23.60;99.90
18153;DHT22;9202;51.578;7.734;2023-07-29T11:42:28;23.70;99.90
18153;DHT22;9202;51.578;7.734;2023-07-29T11:44:30;23.40;99.90
18153;DHT22;9202;51.578;7.734;2023-07-29T11:46:33;23.60;99.90
18153;DHT22;9202;51.578;7.734;2023-07-29T11:48:37;23.60;99.90
18153;DHT22;9202;51.578;7.734;2023-07-29T11:50:40;23.70;99.90
18153;DHT22;9202;51.578;7.734;2023-07-29T11:52:43;23.80;99.90
18153;DHT22;9202;51.578;7.734;2023-07-29T11:54:47;24.00;99.90
18153;DHT22;9202;51.578;7.734;2023-07-29T11:56:50;23.90;99.90
18153;DHT22;9202;51.578;7.734;2023-07-29T11:58:52;24.00;99.90
18153;DHT22;9202;51.578;7.734;2023-07-29T12:00:55;24.30;99.90
18153;DHT22;9202;51.578;7.734;2023-07-29T12:02:58;24.50;99.90
18153;DHT22;9202;51.578;7.734;2023-07-29T12:05:02;24.70;99.90
18153;DHT22;9202;51.578;7.734;2023-07-29T12:07:05;24.70;99.90
18153;DHT22;9202;51.578;7.734;2023-07-29T12:09:08;24.50;99.90
18153;DHT22;9202;51.578;7.734;2023-07-29T12:11:11;24.30;99.90
18153;DHT22;9202;51.578;7.734;2023-07-29T12:13:13;24.10;99.90
18153;DHT22;9202;51.578;7.734;2023-07-29T12:15:23;23.90;99.90
18153;DHT22;9202;51.578;7.734;2023-07-29T12:17:26;23.90;99.90
18153;DHT22;9202;51.578;7.734;2023-07-29T12:19:32;24.00;99.90
18153;DHT22;9202;51.578;7.734;2023-07-29T12:21:35;23.90;99.90
18153;DHT22;9202;51.578;7.734;2023-07-29T12:23:38;23.80;99.90
18153;DHT22;9202;51.578;7.734;2023-07-29T12:25:41;23.80;99.90
18153;DHT22;9202;51.578;7.734;2023-07-29T12:27:43;23.70;99.90
18153;DHT22;9202;51.578;7.734;2023-07-29T12:29:46;23.70;99.90
18153;DHT22;9202;51.578;7.734;2023-07-29T12:31:57;23.60;99.90
18153;DHT22;9202;51.578;7.734;2023-07-29T12:33:59;23.90;99.90
18153;DHT22;9202;51.578;7.734;2023-07-29T12:36:02;24.20;99.90
18153;DHT22;9202;51.578;7.734;2023-07-29T12:38:05;24.20;99.90
18153;DHT22;9202;51.578;7.734;2023-07-29T12:40:08;24.50;99.90
18153;DHT22;9202;51.578;7.734;2023-07-29T12:42:11;24.60;99.90
18153;DHT22;9202;51.578;7.734;2023-07-29T12:44:14;24.10;99.90
18153;DHT22;9202;51.578;7.734;2023-07-29T12:46:18;24.10;99.90
18153;DHT22;9202;51.578;7.734;2023-07-29T12:48:20;24.10;99.90
18153;DHT22;9202;51.578;7.734;2023-07-29T12:50:23;23.80;99.90
18153;DHT22;9202;51.578;7.734;2023-07-29T12:52:26;23.90;99.90
18153;DHT22;9202;51.578;7.734;2023-07-29T12:54:28;23.90;99.90
18153;DHT22;9202;51.578;7.734;2023-07-29T12:56:31;24.00;99.90
18153;DHT22;9202;51.578;7.734;2023-07-29T12:58:34;23.90;99.90
18153;DHT22;9202;51.578;7.734;2023-07-29T13:00:37;23.90;99.90
18153;DHT22;9202;51.578;7.734;2023-07-29T13:02:40;23.90;99.90
18153;DHT22;9202;51.578;7.734;2023-07-29T13:04:43;24.10;99.90
18153;DHT22;9202;51.578;7.734;2023-07-29T13:06:45;24.10;99.90
18153;DHT22;9202;51.578;7.734;2023-07-29T13:08:48;24.30;99.90
18153;DHT22;9202;51.578;7.734;2023-07-29T13:10:50;24.30;99.90
18153;DHT22;9202;51.578;7.734;2023-07-29T13:12:53;24.30;99.90
18153;DHT22;9202;51.578;7.734;2023-07-29T13:14:56;24.20;99.90
18153;DHT22;9202;51.578;7.734;2023-07-29T13:16:58;24.30;99.90
18153;DHT22;9202;51.578;7.734;2023-07-29T13:19:01;24.30;99.90
18153;DHT22;9202;51.578;7.734;2023-07-29T13:21:03;24.60;99.90
18153;DHT22;9202;51.578;7.734;2023-07-29T13:23:06;24.60;99.90
18153;DHT22;9202;51.578;7.734;2023-07-29T13:25:09;24.70;99.90
18153;DHT22;9202;51.578;7.734;2023-07-29T13:27:11;24.70;99.90
18153;DHT22;9202;51.578;7.734;2023-07-29T13:29:14;24.80;99.90
18153;DHT22;9202;51.578;7.734;2023-07-29T13:31:17;24.70;99.90
18153;DHT22;9202;51.578;7.734;2023-07-29T13:33:20;24.60;99.90
18153;DHT22;9202;51.578;7.734;2023-07-29T13:35:23;24.80;99.90
18153;DHT22;9202;51.578;7.734;2023-07-29T13:37:25;24.50;99.90
18153;DHT22;9202;51.578;7.734;2023-07-29T13:39:28;24.40;99.90
18153;DHT22;9202;51.578;7.734;2023-07-29T13:41:30;24.70;99.90
18153;DHT22;9202;51.578;7.734;2023-07-29T13:43:33;24.90;99.90
18153;DHT22;9202;51.578;7.734;2023-07-29T13:45:36;24.70;99.90
18153;DHT22;9202;51.578;7.734;2023-07-29T13:47:38;24.50;99.90
18153;DHT22;9202;51.578;7.734;2023-07-29T13:49:41;24.50;99.90
18153;DHT22;9202;51.578;7.734;2023-07-29T13:51:44;24.70;99.90
18153;DHT22;9202;51.578;7.734;2023-07-29T13:53:46;24.60;99.90
18153;DHT22;9202;51.578;7.734;2023-07-29T13:55:49;24.60;99.90
18153;DHT22;9202;51.578;7.734;2023-07-29T13:57:52;24.90;99.90
18153;DHT22;9202;51.578;7.734;2023-07-29T13:59:55;24.90;99.90
18153;DHT22;9202;51.578;7.734;2023-07-29T14:01:58;25.00;99.90
18153;DHT22;9202;51.578;7.734;2023-07-29T14:04:01;25.10;99.90
18153;DHT22;9202;51.578;7.734;2023-07-29T14:06:03;24.90;99.90
18153;DHT22;9202;51.578;7.734;2023-07-29T14:08:06;24.70;99.90
18153;DHT22;9202;51.578;7.734;2023-07-29T14:10:09;24.60;99.90
18153;DHT22;9202;51.578;7.734;2023-07-29T14:12:11;24.40;99.90
18153;DHT22;9202;51.578;7.734;2023-07-29T14:14:16;24.10;99.90
18153;DHT22;9202;51.578;7.734;2023-07-29T14:16:20;23.80;99.90
18153;DHT22;9202;51.578;7.734;2023-07-29T14:18:23;23.70;99.90
18153;DHT22;9202;51.578;7.734;2023-07-29T14:20:25;23.60;99.90
18153;DHT22;9202;51.578;7.734;2023-07-29T14:22:28;23.60;99.90
18153;DHT22;9202;51.578;7.734;2023-07-29T14:24:32;23.50;99.90
18153;DHT22;9202;51.578;7.734;2023-07-29T14:26:35;23.40;99.90
18153;DHT22;9202;51.578;7.734;2023-07-29T14:28:38;23.40;99.90
18153;DHT22;9202;51.578;7.734;2023-07-29T14:30:41;23.20;99.90
18153;DHT22;9202;51.578;7.734;2023-07-29T14:32:44;23.20;99.90
18153;DHT22;9202;51.578;7.734;2023-07-29T14:34:47;23.10;99.90
18153;DHT22;9202;51.578;7.734;2023-07-29T14:36:50;23.00;99.90
18153;DHT22;9202;51.578;7.734;2023-07-29T14:38:53;23.00;99.90
18153;DHT22;9202;51.578;7.734;2023-07-29T14:40:56;22.90;99.90
18153;DHT22;9202;51.578;7.734;2023-07-29T14:42:58;22.80;99.90
18153;DHT22;9202;51.578;7.734;2023-07-29T14:45:01;22.70;99.90
18153;DHT22;9202;51.578;7.734;2023-07-29T14:47:04;22.70;99.90
18153;DHT22;9202;51.578;7.734;2023-07-29T14:49:08;22.60;99.90
18153;DHT22;9202;51.578;7.734;2023-07-29T14:51:11;22.40;99.90
18153;DHT22;9202;51.578;7.734;2023-07-29T14:53:14;22.30;99.90
18153;DHT22;9202;51.578;7.734;2023-07-29T14:57:36;21.90;99.90
18153;DHT22;9202;51.578;7.734;2023-07-29T14:59:38;21.60;99.90
18153;DHT22;9202;51.578;7.734;2023-07-29T15:01:41;21.30;99.90
18153;DHT22;9202;51.578;7.734;2023-07-29T15:03:44;21.00;99.90
18153;DHT22;9202;51.578;7.734;2023-07-29T15:05:48;20.20;99.90
18153;DHT22;9202;51.578;7.734;2023-07-29T15:07:51;19.40;99.90
18153;DHT22;9202;51.578;7.734;2023-07-29T15:09:53;18.80;99.90
18153;DHT22;9202;51.578;7.734;2023-07-29T15:11:56;18.30;99.90
18153;DHT22;9202;51.578;7.734;2023-07-29T15:14:00;17.70;99.90
18153;DHT22;9202;51.578;7.734;2023-07-29T15:16:05;17.40;99.90
18153;DHT22;9202;51.578;7.734;2023-07-29T15:20:24;16.90;99.90
18153;DHT22;9202;51.578;7.734;2023-07-29T15:22:28;15.90;99.90
18153;DHT22;9202;51.578;7.734;2023-07-29T15:24:31;16.50;99.90
18153;DHT22;9202;51.578;7.734;2023-07-29T15:26:33;16.70;99.90
18153;DHT22;9202;51.578;7.734;2023-07-29T15:28:37;16.80;99.90
18153;DHT22;9202;51.578;7.734;2023-07-29T15:30:40;16.90;99.90
18153;DHT22;9202;51.578;7.734;2023-07-29T15:32:45;17.20;99.90
18153;DHT22;9202;51.578;7.734;2023-07-29T15:34:47;17.40;99.90
18153;DHT22;9202;51.578;7.734;2023-07-29T15:36:50;17.70;99.90
18153;DHT22;9202;51.578;7.734;2023-07-29T15:38:53;18.10;99.90
18153;DHT22;9202;51.578;7.734;2023-07-29T15:40:57;18.40;99.90
18153;DHT22;9202;51.578;7.734;2023-07-29T15:43:00;18.60;99.90
18153;DHT22;9202;51.578;7.734;2023-07-29T15:45:02;18.70;99.90
18153;DHT22;9202;51.578;7.734;2023-07-29T15:47:05;18.70;99.90
18153;DHT22;9202;51.578;7.734;2023-07-29T15:49:08;18.70;99.90